Time;durP1;ratioP1;P1;durP2;ratioP2;P2;SDS_P1;SDS_P2;PMS_P1;PMS_P2;Temp;Humidity;BMP_temperature;BMP_pressure;BME280_temperature;BME280_humidity;BME280_pressure;Samples;Min_cycle;Max_cycle;Signal;HPM_P1;HPM_P2
2022/01/22 00:02:11;;;;;;;49.95;28.00;;;;;;;28.67;59.33;100996.63;5078507;27;66968;-40
2022/01/22 00:04:42;;;;;;;54.72;27.33;;;;;;;28.71;58.78;101005.97;5081379;27;69867;-39
2022/01/22 00:07:12;;;;;;;55.63;27.27;;;;;;;28.74;59.40;101005.53;5063741;27;66375;-40
2022/01/22 00:09:58;;;;;;;59.95;25.08;;;;;;;28.78;59.42;101005.97;5075804;27;70649;-40
2022/01/22 00:15:10;;;;;;;44.08;22.73;;;;;;;28.83;59.19;101004.31;5087874;27;70743;-41
2022/01/22 00:17:41;;;;;;;36.08;22.52;;;;;;;28.84;59.78;101007.88;5080183;27;66463;-39
2022/01/22 00:20:12;;;;;;;40.08;21.92;;;;;;;28.85;59.82;101010.34;5084601;27;70525;-39
2022/01/22 00:22:43;;;;;;;36.00;20.17;;;;;;;28.80;60.02;101007.44;5080572;27;66403;-39
2022/01/22 00:25:15;;;;;;;36.60;19.63;;;;;;;28.88;59.94;101028.84;5090498;27;71106;-39
2022/01/22 00:27:48;;;;;;;44.92;15.43;;;;;;;28.77;61.33;101010.53;5081607;27;65560;-38
2022/01/22 00:30:22;;;;;;;39.80;14.35;;;;;;;28.82;62.02;101029.66;5077987;27;69898;-41
2022/01/22 00:32:53;;;;;;;29.33;12.18;;;;;;;28.73;62.20;101036.28;5081929;27;66514;-41
2022/01/22 00:35:24;;;;;;;49.97;13.30;;;;;;;28.69;62.78;101037.72;5080714;27;72135;-41
2022/01/22 00:37:54;;;;;;;32.55;12.02;;;;;;;28.65;62.79;101036.47;5083439;27;66701;-41
2022/01/22 00:40:24;;;;;;;42.40;13.18;;;;;;;28.59;63.17;101031.88;5081200;27;69143;-41
2022/01/22 00:42:55;;;;;;;33.00;11.75;;;;;;;28.58;62.88;101035.59;5087424;27;66960;-42
2022/01/22 00:45:25;;;;;;;42.78;12.13;;;;;;;28.57;63.35;101040.16;5079751;27;70159;-45
2022/01/22 00:47:55;;;;;;;35.08;11.95;;;;;;;28.54;63.47;101037.03;5082087;27;67410;-40
2022/01/22 00:50:25;;;;;;;33.90;11.95;;;;;;;28.46;63.85;101036.16;5080329;27;70329;-40
2022/01/22 00:52:56;;;;;;;32.30;11.32;;;;;;;28.49;63.56;101051.94;5077621;27;66228;-40
2022/01/22 00:55:26;;;;;;;45.50;12.57;;;;;;;28.44;63.85;101043.63;5078979;27;69364;-41
2022/01/22 00:57:56;;;;;;;42.72;14.02;;;;;;;28.39;64.04;101046.06;5079206;27;65618;-40
2022/01/22 01:00:27;;;;;;;46.90;15.38;;;;;;;28.42;63.86;101051.09;5076076;27;70396;-39
2022/01/22 01:02:57;;;;;;;50.45;12.95;;;;;;;28.43;63.71;101066.25;5076077;27;65976;-39
2022/01/22 01:05:28;;;;;;;40.40;13.73;;;;;;;28.41;64.15;101052.09;5075297;27;70294;-40
2022/01/22 01:07:58;;;;;;;57.65;13.27;;;;;;;28.38;63.70;101065.97;5077529;27;66707;-41
2022/01/22 01:10:28;;;;;;;34.63;12.38;;;;;;;28.42;64.05;101067.28;5067063;27;69440;-40
2022/01/22 01:12:59;;;;;;;26.33;10.95;;;;;;;28.45;64.16;101072.28;5075451;27;66240;-39
2022/01/22 01:32:19;;;;;;;45.10;12.68;;;;;;;28.46;64.56;101068.53;5048117;28;69274;-40
2022/01/22 01:34:51;;;;;;;;;;;;;;;28.23;66.03;101081.47;5076145;27;66256;-41
2022/01/22 01:37:22;;;;;;;41.35;11.80;;;;;;;28.43;64.36;101068.94;5061787;27;70141;-41
2022/01/22 01:39:59;;;;;;;29.67;10.27;;;;;;;28.51;63.86;101079.56;5077393;27;66164;-40
2022/01/22 01:45:06;;;;;;;28.17;10.63;;;;;;;28.56;63.52;101079.00;5072093;27;65125;-39
2022/01/22 01:47:49;;;;;;;50.10;11.20;;;;;;;28.56;64.27;101078.16;5088754;27;70140;-41
2022/01/22 01:50:21;;;;;;;44.72;10.57;;;;;;;28.59;63.70;101077.75;5043634;27;65763;-41
2022/01/22 01:53:06;;;;;;;36.85;10.73;;;;;;;28.66;63.85;101079.44;5076521;27;70487;-41
2022/01/22 01:57:27;;;;;;;40.50;11.02;;;;;;;28.69;63.81;101083.59;5071666;27;66121;-41
2022/01/22 01:58:32;;;;;;;33.78;10.57;;;;;;;28.71;63.78;101076.97;5057797;27;69500;-41
2022/01/22 02:01:05;;;;;;;26.00;10.75;;;;;;;28.72;63.35;101072.41;5073295;27;65436;-40
2022/01/22 02:03:39;;;;;;;29.00;10.80;;;;;;;28.74;63.03;101076.56;5074270;27;70041;-40
2022/01/22 02:06:19;;;;;;;34.58;9.43;;;;;;;28.80;63.31;101079.50;5074698;27;66633;-40
2022/01/22 02:08:49;;;;;;;32.17;9.93;;;;;;;28.78;63.08;101077.00;5069376;27;69605;-40
2022/01/22 02:11:26;;;;;;;22.42;9.95;;;;;;;28.79;63.19;101078.66;5076872;27;66243;-40
2022/01/22 02:26:19;;;;;;;36.53;13.45;;;;;;;28.91;63.08;101071.63;5053909;27;69915;-40
2022/01/22 02:28:52;;;;;;;30.98;13.77;;;;;;;28.91;62.27;101077.03;5072780;27;66167;-41
2022/01/22 02:31:38;;;;;;;42.07;15.27;;;;;;;28.94;62.77;101075.81;5079263;27;70138;-41
2022/01/22 02:34:19;;;;;;;51.50;15.98;;;;;;;28.98;61.89;101076.25;5078777;27;65552;-40
2022/01/22 02:37:03;;;;;;;36.15;15.13;;;;;;;28.95;61.81;101067.53;5079377;27;69736;-41
2022/01/22 02:39:41;;;;;;;42.92;15.80;;;;;;;29.00;61.82;101069.59;5076280;27;67253;-41
2022/01/22 02:42:13;;;;;;;51.30;18.77;;;;;;;28.99;61.99;101053.59;5078940;27;69895;-40
2022/01/22 02:44:46;;;;;;;;;;;;;;;28.84;63.09;101068.09;5071513;27;66460;-39
2022/01/22 02:47:18;;;;;;;44.53;17.23;;;;;;;29.10;62.13;101058.44;5077318;27;69597;-41
2022/01/22 02:49:48;;;;;;;43.28;16.80;;;;;;;29.11;61.62;101057.41;5077900;27;66282;-41
2022/01/22 02:52:19;;;;;;;41.92;17.60;;;;;;;29.13;61.58;101052.63;5063068;28;70139;-41
2022/01/22 02:54:50;;;;;;;46.92;16.63;;;;;;;29.17;61.25;101053.91;5081643;27;66442;-41
2022/01/22 02:57:20;;;;;;;44.00;16.00;;;;;;;29.12;61.34;101040.16;5077861;27;70298;-41
2022/01/22 02:59:55;;;;;;;33.35;15.52;;;;;;;29.25;61.43;101047.44;5079018;27;66509;-40
2022/01/22 03:02:26;;;;;;;44.53;17.23;;;;;;;29.30;60.90;101053.06;5081636;27;69626;-41
2022/01/22 03:04:56;;;;;;;53.10;17.63;;;;;;;29.32;61.22;101040.19;5085923;27;65286;-42
2022/01/22 03:07:27;;;;;;;45.45;16.20;;;;;;;29.36;61.62;101042.28;5078286;27;69129;-41
2022/01/22 03:10:02;;;;;;;58.13;18.73;;;;;;;29.37;61.20;101030.44;5078798;27;65181;-41
2022/01/22 03:15:34;;;;;;;46.38;19.08;;;;;;;29.26;61.61;101004.03;5080927;27;66430;-42
2022/01/22 03:18:11;;;;;;;56.45;19.20;;;;;;;29.49;61.65;101035.22;5082605;27;69500;-42
2022/01/22 03:29:07;;;;;;;51.22;20.48;;;;;;;29.53;60.66;101020.25;5078386;27;69727;-40
2022/01/22 03:31:38;;;;;;;45.67;20.02;;;;;;;29.54;61.41;101013.81;5070356;27;66507;-41
2022/01/22 03:34:09;;;;;;;50.30;19.90;;;;;;;29.58;61.03;101012.34;5078183;27;70023;-41
2022/01/22 03:36:39;;;;;;;46.92;20.50;;;;;;;29.60;60.42;101010.28;5072943;27;65687;-39
2022/01/22 03:39:12;;;;;;;42.22;18.05;;;;;;;29.65;60.84;101018.63;5078367;27;70448;-41
2022/01/22 03:41:43;;;;;;;42.53;18.40;;;;;;;29.66;60.23;101004.06;5080755;27;65783;-40
2022/01/22 03:44:13;;;;;;;39.55;17.75;;;;;;;29.70;60.12;100999.06;5089545;27;70547;-41
2022/01/22 03:46:44;;;;;;;44.95;18.85;;;;;;;29.70;59.85;100993.66;5074794;27;65310;-41
2022/01/22 03:49:16;;;;;;;41.17;18.42;;;;;;;29.70;60.16;100989.09;5070892;27;69859;-41
2022/01/22 03:51:47;;;;;;;55.05;18.75;;;;;;;29.74;60.45;100990.31;5078935;27;65172;-40
2022/01/22 03:54:17;;;;;;;52.42;18.73;;;;;;;29.77;60.93;100989.91;5079039;27;70469;-40
2022/01/22 03:56:48;;;;;;;52.03;19.33;;;;;;;29.77;60.41;100979.09;5084708;27;66078;-41
2022/01/22 03:59:27;;;;;;;48.47;17.83;;;;;;;29.80;60.36;100984.06;5073827;27;70036;-40
2022/01/22 04:04:54;;;;;;;40.13;16.40;;;;;;;29.83;60.55;100955.78;5078908;27;69337;-41
2022/01/22 04:10:10;;;;;;;49.60;17.15;;;;;;;29.92;60.01;100950.97;5063466;27;70426;-39
2022/01/22 04:13:00;;;;;;;33.35;15.57;;;;;;;29.93;60.42;100953.47;5062348;27;66482;-41
2022/01/22 04:15:33;;;;;;;43.13;16.27;;;;;;;29.95;59.51;100939.72;5079972;27;70208;-41
2022/01/22 04:29:09;;;;;;;35.42;17.42;;;;;;;30.03;58.27;100923.25;5080013;27;65387;-40
2022/01/22 04:31:39;;;;;;;41.30;17.77;;;;;;;30.04;57.73;100903.31;5077789;27;69275;-41
2022/01/22 04:34:09;;;;;;;35.35;16.88;;;;;;;30.06;58.06;100906.59;5086437;27;65893;-41
2022/01/22 04:36:40;;;;;;;34.15;15.90;;;;;;;30.12;58.63;100896.81;5084846;27;69508;-41
2022/01/22 04:39:11;;;;;;;37.38;16.83;;;;;;;30.15;57.33;100908.03;5064639;27;66385;-41
2022/01/22 04:41:41;;;;;;;32.53;15.15;;;;;;;30.18;57.90;100888.66;5080272;27;70151;-42
2022/01/22 04:44:12;;;;;;;33.58;17.02;;;;;;;30.22;57.34;100887.22;5073844;27;66749;-41
2022/01/22 04:52:29;;;;;;;29.95;15.73;;;;;;;30.26;57.89;100880.34;5059141;27;66357;-40
2022/01/22 04:55:00;;;;;;;23.15;13.57;;;;;;;30.33;57.08;100868.66;5059084;27;65242;-41
2022/01/22 04:57:42;;;;;;;28.65;15.63;;;;;;;30.13;56.24;100831.66;5060498;28;70308;-41
2022/01/22 05:00:17;;;;;;;33.72;16.42;;;;;;;30.24;56.56;100833.72;5076827;27;65303;-41
2022/01/22 05:03:15;;;;;;;38.03;17.48;;;;;;;30.45;56.20;100861.47;5079872;27;69968;-40
2022/01/22 05:05:59;;;;;;;29.13;15.68;;;;;;;30.46;56.35;100846.91;5081882;27;66071;-41
2022/01/22 05:08:52;;;;;;;36.00;15.38;;;;;;;30.50;56.89;100845.41;5079368;27;69338;-40
2022/01/22 05:11:29;;;;;;;22.88;14.27;;;;;;;30.54;56.43;100843.13;5076023;27;66682;-41
2022/01/22 05:13:59;;;;;;;34.38;15.98;;;;;;;30.51;56.03;100822.72;5081007;27;69673;-40
2022/01/22 05:16:30;;;;;;;28.60;15.40;;;;;;;30.58;56.17;100823.50;5079275;27;66165;-40
2022/01/22 05:19:06;;;;;;;25.02;14.27;;;;;;;30.57;56.24;100816.44;5074804;27;69621;-41
2022/01/22 05:21:39;;;;;;;33.00;16.60;;;;;;;30.62;56.14;100819.31;5079167;27;65662;-40
2022/01/22 05:24:14;;;;;;;32.63;16.25;;;;;;;30.63;55.92;100810.13;5087176;27;70144;-40
2022/01/22 05:33:31;;;;;;;23.15;15.85;;;;;;;30.72;55.90;100780.91;5047178;27;66289;-40
2022/01/22 05:38:45;;;;;;;34.90;16.30;;;;;;;30.76;55.88;100775.88;5058486;27;66549;-40
2022/01/22 05:41:16;;;;;;;32.95;16.23;;;;;;;30.79;56.02;100770.03;5055751;27;69056;-40
2022/01/22 05:43:46;;;;;;;34.10;16.30;;;;;;;30.81;55.70;100751.69;5078353;27;66383;-39
2022/01/22 05:46:18;;;;;;;20.83;14.43;;;;;;;30.71;54.62;100744.88;5077960;27;69993;-39
2022/01/22 05:48:51;;;;;;;32.25;14.93;;;;;;;30.59;53.12;100748.53;5074107;27;65950;-40
2022/01/22 05:51:21;;;;;;;31.08;14.35;;;;;;;30.48;53.25;100742.78;5082804;27;71054;-39
2022/01/22 06:02:02;;;;;;;26.95;13.15;;;;;;;30.11;50.75;100717.44;5094557;27;69932;-40
2022/01/22 06:04:32;;;;;;;24.00;12.07;;;;;;;30.07;51.18;100708.13;5078472;27;65359;-39
2022/01/22 06:07:08;;;;;;;25.42;12.77;;;;;;;30.02;50.53;100699.81;5054215;27;70516;-38
2022/01/22 06:09:51;;;;;;;17.33;12.55;;;;;;;29.98;49.93;100698.63;5074025;27;66203;-40
2022/01/22 06:15:11;;;;;;;15.48;11.13;;;;;;;29.87;48.41;100686.63;5074875;27;65549;-39
2022/01/22 06:18:01;;;;;;;12.43;10.32;;;;;;;29.80;48.43;100669.59;5078128;27;70330;-39
2022/01/22 06:20:32;;;;;;;13.10;9.90;;;;;;;29.77;47.73;100670.84;5089752;27;66290;-39
2022/01/22 06:23:05;;;;;;;16.38;10.55;;;;;;;29.73;47.68;100661.53;5076408;27;69538;-39
2022/01/22 06:25:35;;;;;;;12.52;9.95;;;;;;;29.71;47.29;100655.50;5069578;27;66385;-41
2022/01/22 06:28:06;;;;;;;18.55;10.55;;;;;;;29.69;47.34;100652.19;5075930;27;69985;-39
2022/01/22 06:30:37;;;;;;;17.65;10.52;;;;;;;29.70;47.73;100643.06;5069275;27;66100;-41
2022/01/22 06:33:07;;;;;;;21.67;10.65;;;;;;;29.69;47.25;100649.50;5065725;27;69478;-41
2022/01/22 06:35:38;;;;;;;16.65;10.45;;;;;;;29.65;46.73;100634.75;5064595;27;66685;-40
2022/01/22 06:38:09;;;;;;;18.88;9.85;;;;;;;29.67;46.14;100639.94;5041034;27;69795;-40
2022/01/22 06:44:29;;;;;;;14.57;9.30;;;;;;;29.65;45.46;100629.34;5074642;27;70128;-40
2022/01/22 06:47:20;;;;;;;10.35;9.30;;;;;;;29.65;46.09;100629.34;5074042;27;66279;-40
2022/01/22 06:50:09;;;;;;;10.23;9.15;;;;;;;29.63;45.83;100620.63;5083752;27;70389;-40
2022/01/22 06:53:00;;;;;;;;;;;;;;;29.40;44.09;100621.97;5084577;27;66461;-39
2022/01/22 06:55:44;;;;;;;8.98;8.07;;;;;;;29.61;45.00;100617.28;5072199;27;69870;-39
2022/01/22 06:58:17;;;;;;;12.85;9.68;;;;;;;29.58;44.07;100612.31;5086168;27;66073;-39
2022/01/22 07:01:09;;;;;;;9.90;8.93;;;;;;;29.60;44.38;100611.03;5076096;27;70400;-41
2022/01/22 07:04:06;;;;;;;11.02;8.95;;;;;;;29.64;44.75;100616.03;5077227;27;66960;-40
2022/01/22 07:06:57;;;;;;;9.02;8.27;;;;;;;29.66;44.69;100620.19;5073505;27;68870;-40
2022/01/22 07:09:29;;;;;;;12.18;8.73;;;;;;;29.65;44.57;100610.44;5075636;27;65188;-41
2022/01/22 07:12:00;;;;;;;8.35;7.75;;;;;;;29.69;44.07;100614.34;5059872;27;69328;-40
2022/01/22 07:14:31;;;;;;;9.63;8.93;;;;;;;29.71;44.50;100600.63;5070460;27;68002;-39
2022/01/22 07:17:02;;;;;;;9.95;9.07;;;;;;;29.71;43.78;100597.91;5064126;27;70642;-39
2022/01/22 07:19:41;;;;;;;13.27;8.35;;;;;;;29.72;44.24;100589.56;5083563;27;66364;-39
2022/01/22 07:25:24;;;;;;;14.85;8.77;;;;;;;29.73;43.64;100572.31;5074780;27;66177;-39
2022/01/22 07:27:59;;;;;;;16.52;8.68;;;;;;;29.78;43.95;100572.50;5060114;27;70363;-39
2022/01/22 07:30:31;;;;;;;11.40;8.77;;;;;;;29.76;44.09;100569.19;5075427;27;66359;-39
2022/01/22 07:33:02;;;;;;;10.37;9.00;;;;;;;29.84;43.86;100571.59;5056270;28;70357;-39
2022/01/22 07:35:36;;;;;;;13.75;8.25;;;;;;;29.88;43.67;100566.56;5080121;27;65526;-39
2022/01/22 07:38:10;;;;;;;8.98;8.18;;;;;;;29.89;43.15;100562.00;5067328;27;70122;-38
2022/01/22 07:40:41;;;;;;;9.93;8.68;;;;;;;29.91;42.97;100562.59;5073758;27;66632;-39
2022/01/22 07:43:36;;;;;;;9.23;8.15;;;;;;;29.88;43.21;100552.25;5081214;27;70729;-38
2022/01/22 07:46:38;;;;;;;9.20;8.50;;;;;;;29.90;42.76;100550.16;5070803;27;65376;-40
2022/01/22 07:49:29;;;;;;;9.45;8.63;;;;;;;29.84;42.93;100532.94;5081147;27;70303;-40
2022/01/22 07:52:05;;;;;;;9.50;8.00;;;;;;;29.97;42.58;100551.72;5080795;27;66680;-39
2022/01/22 07:54:36;;;;;;;8.80;7.95;;;;;;;29.97;42.40;100545.50;5084559;27;69990;-39
2022/01/22 07:57:07;;;;;;;9.23;8.40;;;;;;;29.95;41.62;100539.47;5079950;27;65593;-38
2022/01/22 07:59:37;;;;;;;8.68;7.80;;;;;;;29.94;41.98;100540.53;5078267;27;70409;-39
2022/01/22 08:02:08;;;;;;;9.40;8.63;;;;;;;29.98;42.38;100547.16;5073893;27;66409;-40
2022/01/22 08:04:57;;;;;;;10.00;7.60;;;;;;;29.99;42.25;100554.22;5071289;27;69562;-40
2022/01/22 08:07:48;;;;;;;8.70;7.82;;;;;;;29.95;41.75;100536.75;5061387;27;66036;-38
2022/01/22 08:10:56;;;;;;;9.25;8.45;;;;;;;29.99;41.94;100538.00;5071142;27;69901;-41
2022/01/22 08:13:29;;;;;;;8.55;7.97;;;;;;;30.02;41.53;100542.94;5078481;27;65690;-39
2022/01/22 08:16:00;;;;;;;10.43;7.95;;;;;;;30.00;41.45;100545.03;5049184;27;69248;-39
2022/01/22 08:18:31;;;;;;;7.95;7.35;;;;;;;30.02;41.39;100548.34;5082204;27;65856;-39
2022/01/22 08:21:02;;;;;;;9.05;8.45;;;;;;;30.02;41.52;100546.47;5069965;27;69398;-39
2022/01/22 08:23:50;;;;;;;9.40;8.40;;;;;;;30.02;41.41;100534.84;5080430;27;65476;-40
2022/01/22 08:26:40;;;;;;;9.88;9.07;;;;;;;30.00;41.40;100545.03;5082043;27;68883;-40
2022/01/22 08:29:21;;;;;;;9.88;9.07;;;;;;;30.03;40.97;100548.16;5077252;27;66347;-39
2022/01/22 08:32:04;;;;;;;10.20;9.13;;;;;;;30.01;41.24;100549.41;5063636;28;69989;-40
2022/01/22 08:37:27;;;;;;;12.50;10.10;;;;;;;30.04;40.90;100557.09;5073293;27;68114;-40
2022/01/22 08:39:57;;;;;;;11.63;8.90;;;;;;;30.04;41.38;100563.31;5079279;27;65099;-39
2022/01/22 08:42:28;;;;;;;8.85;8.15;;;;;;;30.03;41.20;100556.25;5083050;27;69552;-39
2022/01/22 08:45:00;;;;;;;10.30;9.27;;;;;;;30.02;40.86;100565.41;5074219;27;66605;-39
2022/01/22 08:47:31;;;;;;;9.73;8.52;;;;;;;30.01;41.53;100565.66;5071634;27;69762;-39
2022/01/22 08:50:02;;;;;;;15.80;8.82;;;;;;;30.03;41.23;100558.97;5079894;27;67621;-39
2022/01/22 08:52:35;;;;;;;10.18;8.20;;;;;;;30.04;41.25;100562.50;5075818;27;70558;-39
2022/01/22 08:55:08;;;;;;;8.75;7.80;;;;;;;30.07;41.86;100562.03;5073045;27;66364;-39
2022/01/22 08:57:40;;;;;;;10.15;8.20;;;;;;;30.08;41.72;100560.97;5075587;27;70335;-39
2022/01/22 09:00:14;;;;;;;10.93;8.02;;;;;;;30.09;41.68;100565.38;5074277;27;66585;-40
2022/01/22 09:02:54;;;;;;;16.17;8.40;;;;;;;30.10;41.78;100560.78;5062634;27;70648;-39
2022/01/22 09:05:54;;;;;;;7.75;6.93;;;;;;;30.13;41.82;100563.03;5048815;27;66740;-39
2022/01/22 09:09:10;;;;;;;7.77;6.97;;;;;;;30.15;41.94;100575.28;5041598;28;69337;-39
2022/01/22 09:11:58;;;;;;;8.48;7.15;;;;;;;30.16;41.37;100571.53;5040297;28;66465;-39
2022/01/22 09:14:39;;;;;;;8.50;7.60;;;;;;;30.20;41.80;100583.56;5061734;27;69256;-38
2022/01/22 09:17:09;;;;;;;7.80;7.30;;;;;;;30.21;41.89;100574.38;5072019;27;65441;-38
2022/01/22 09:19:40;;;;;;;11.57;6.50;;;;;;;30.22;41.62;100592.28;5063435;27;69378;-38
2022/01/22 09:22:15;;;;;;;7.22;6.50;;;;;;;30.22;41.01;100581.47;5072336;27;66638;-38
2022/01/22 09:24:49;;;;;;;9.00;6.70;;;;;;;30.21;40.98;100590.63;5070161;27;70249;-39
2022/01/22 09:27:20;;;;;;;9.35;6.57;;;;;;;30.20;41.45;100588.13;5066914;27;65702;-42
2022/01/22 09:29:51;;;;;;;37.65;9.02;;;;;;;30.28;47.95;100593.28;5064705;27;69859;-41
2022/01/22 09:32:22;;;;;;;44.55;9.95;;;;;;;30.44;49.65;100594.59;5065458;27;65819;-40
2022/01/22 09:35:10;;;;;;;23.23;10.13;;;;;;;30.60;51.35;100604.84;5048168;27;70561;-40
2022/01/22 09:37:59;;;;;;;16.98;9.20;;;;;;;30.77;51.75;100609.66;5053542;27;66694;-40
2022/01/22 09:40:48;;;;;;;29.90;10.57;;;;;;;30.90;51.33;100606.81;5070224;27;69478;-41
2022/01/22 09:43:45;;;;;;;39.22;9.23;;;;;;;31.04;51.42;100621.03;5063673;27;66081;-40
2022/01/22 09:46:30;;;;;;;29.20;8.65;;;;;;;31.12;51.55;100608.00;5067450;27;69309;-42
2022/01/22 09:49:33;;;;;;;25.58;8.95;;;;;;;31.20;51.34;100614.13;5035577;27;66594;-41
2022/01/22 09:52:38;;;;;;;19.63;8.27;;;;;;;31.25;51.59;100611.56;5069292;27;70099;-40
2022/01/22 09:55:46;;;;;;;23.50;12.60;;;;;;;31.34;51.20;100616.44;5064365;27;66847;-41
2022/01/22 09:58:26;;;;;;;23.70;12.07;;;;;;;31.34;51.92;100619.16;5067463;27;70093;-40
2022/01/22 10:01:26;;;;;;;26.05;9.95;;;;;;;31.39;51.81;100616.59;5068735;27;66435;-41
2022/01/22 10:04:02;;;;;;;17.10;7.60;;;;;;;31.30;51.46;100604.41;5065978;27;69458;-39
2022/01/22 10:06:52;;;;;;;14.15;5.47;;;;;;;31.26;51.67;100614.06;5066071;27;66281;-39
2022/01/22 10:10:01;;;;;;;15.70;6.30;;;;;;;31.23;51.01;100608.25;5067825;27;70410;-40
2022/01/22 10:12:50;;;;;;;19.73;5.40;;;;;;;31.43;50.17;100635.13;5066138;27;64947;-40
2022/01/22 10:15:36;;;;;;;11.93;5.20;;;;;;;31.39;50.25;100643.69;5051900;27;70223;-40
2022/01/22 10:18:21;;;;;;;17.02;5.25;;;;;;;31.41;50.72;100658.94;5036853;27;66091;-40
2022/01/22 10:20:52;;;;;;;10.70;4.82;;;;;;;31.40;50.37;100652.69;5067478;27;70301;-40
2022/01/22 10:23:25;;;;;;;7.75;4.18;;;;;;;31.24;50.60;100631.59;5070527;27;65478;-41
2022/01/22 10:26:03;;;;;;;8.25;3.92;;;;;;;31.40;50.55;100655.41;5061607;27;70141;-39
2022/01/22 10:28:46;;;;;;;11.15;4.63;;;;;;;31.07;50.82;100607.03;5067690;27;66491;-47
2022/01/22 10:31:23;;;;;;;9.40;4.75;;;;;;;31.38;51.07;100669.16;5065690;27;70685;-40
2022/01/22 10:34:30;;;;;;;22.52;4.50;;;;;;;31.33;51.56;100679.00;5070623;27;65609;-43
2022/01/22 10:37:29;;;;;;;13.50;4.28;;;;;;;31.14;52.15;100648.38;5067544;27;71222;-41
2022/01/22 10:40:20;;;;;;;19.73;4.40;;;;;;;31.25;52.44;100676.59;5069823;27;66701;-41
2022/01/22 10:42:51;;;;;;;7.38;4.13;;;;;;;31.31;52.49;100679.22;5067456;27;70393;-42
2022/01/22 10:45:29;;;;;;;6.07;4.15;;;;;;;31.31;52.37;100689.25;5066911;27;67450;-43
2022/01/22 10:48:17;;;;;;;11.88;4.57;;;;;;;31.29;53.07;100685.94;5068128;27;70051;-41
2022/01/22 10:51:10;;;;;;;15.95;5.70;;;;;;;31.28;54.01;100692.41;5066896;27;65947;-41
2022/01/22 10:53:43;;;;;;;11.10;4.57;;;;;;;31.33;53.45;100689.84;5072130;27;69023;-40
2022/01/22 10:56:19;;;;;;;22.40;4.75;;;;;;;31.32;53.61;100696.34;5070779;27;65559;-47
2022/01/22 10:59:09;;;;;;;15.48;5.53;;;;;;;31.30;54.01;100699.25;5070387;27;70315;-40
2022/01/22 11:01:52;;;;;;;8.82;5.32;;;;;;;31.31;54.21;100700.91;5053242;27;65523;-40
2022/01/22 11:04:49;;;;;;;13.60;5.00;;;;;;;31.22;55.27;100706.88;5054707;27;69082;-41
2022/01/22 11:07:21;;;;;;;8.98;4.82;;;;;;;31.29;54.26;100718.47;5069733;27;65749;-40
2022/01/22 11:10:03;;;;;;;24.92;5.68;;;;;;;31.29;54.70;100723.91;5071174;27;70397;-40
2022/01/22 11:12:36;;;;;;;18.27;5.75;;;;;;;31.28;55.42;100720.34;5068986;27;66649;-41
2022/01/22 11:15:08;;;;;;;18.05;5.50;;;;;;;31.26;55.44;100717.03;5073326;27;69650;-41
2022/01/22 11:17:39;;;;;;;10.13;5.70;;;;;;;31.28;55.72;100724.94;5042002;27;65311;-40
2022/01/22 11:20:13;;;;;;;11.48;6.20;;;;;;;31.30;55.79;100728.25;5066623;27;69316;-41
2022/01/22 11:22:44;;;;;;;14.85;6.75;;;;;;;31.30;55.59;100725.53;5069412;27;65784;-40
2022/01/22 11:25:15;;;;;;;19.95;6.05;;;;;;;31.31;55.77;100729.88;5068594;27;71485;-42
2022/01/22 11:27:47;;;;;;;10.60;5.55;;;;;;;31.32;55.89;100726.16;5072284;27;66754;-41
2022/01/22 11:30:18;;;;;;;11.57;5.82;;;;;;;31.29;56.24;100727.44;5070351;27;69423;-41
2022/01/22 11:32:52;;;;;;;15.40;6.00;;;;;;;31.31;56.11;100727.19;5070764;27;67095;-41
2022/01/22 11:35:52;;;;;;;11.23;5.90;;;;;;;31.24;56.54;100726.44;5068847;27;71057;-40
2022/01/22 11:38:36;;;;;;;8.88;6.38;;;;;;;31.20;56.69;100728.75;5068868;27;66366;-40
2022/01/22 11:41:15;;;;;;;15.35;6.57;;;;;;;30.99;56.16;100708.38;5071552;27;69992;-46
2022/01/22 11:44:16;;;;;;;14.85;5.93;;;;;;;31.12;56.36;100743.47;5072081;27;66427;-41
2022/01/22 11:46:59;;;;;;;13.07;7.05;;;;;;;30.87;56.67;100724.56;5072462;27;70248;-41
2022/01/22 11:49:30;;;;;;;12.63;6.43;;;;;;;31.02;56.79;100758.56;5070104;27;66428;-40
2022/01/22 11:52:13;;;;;;;19.77;6.50;;;;;;;30.93;57.82;100755.34;5066302;27;69615;-41
2022/01/22 11:54:56;;;;;;;15.65;6.25;;;;;;;30.88;58.09;100757.88;5068511;27;67025;-39
2022/01/22 11:57:30;;;;;;;15.73;6.30;;;;;;;30.68;57.36;100726.38;5065537;27;70414;-40
2022/01/22 12:00:24;;;;;;;13.57;6.78;;;;;;;30.75;58.44;100763.38;5065887;27;66309;-40
2022/01/22 12:03:04;;;;;;;16.85;6.65;;;;;;;30.82;58.52;100775.03;5067412;27;69393;-42
2022/01/22 12:05:54;;;;;;;9.48;6.03;;;;;;;30.85;57.59;100780.00;5067436;27;65573;-40
2022/01/22 12:08:25;;;;;;;13.38;5.15;;;;;;;30.89;57.62;100786.59;5070761;27;69258;-41
2022/01/22 12:17:03;;;;;;;12.25;5.65;;;;;;;30.78;58.72;100801.66;5067700;27;66123;-40
2022/01/22 12:19:50;;;;;;;11.85;5.50;;;;;;;30.86;57.78;100793.28;5005580;28;70722;-39
2022/01/22 12:22:48;;;;;;;28.92;16.63;;;;;;;30.62;58.13;100785.97;5068977;27;67293;-40
2022/01/22 12:25:21;;;;;;;14.63;5.97;;;;;;;30.71;57.50;100799.03;5068692;27;69380;-40
2022/01/22 12:27:53;;;;;;;14.85;5.13;;;;;;;30.64;58.33;100806.38;5072104;27;66638;-41
2022/01/22 12:30:36;;;;;;;;;;;;;;;30.34;59.91;100813.47;5067444;27;70143;-40
2022/01/22 12:33:12;;;;;;;17.48;5.05;;;;;;;30.48;58.50;100813.16;5049512;27;65286;-41
2022/01/22 12:35:42;;;;;;;11.32;5.78;;;;;;;30.45;59.03;100810.06;5066155;27;70514;-42
2022/01/22 12:38:36;;;;;;;9.40;4.90;;;;;;;30.20;59.48;100780.22;5062491;27;65844;-41
2022/01/22 12:41:28;;;;;;;14.40;5.18;;;;;;;30.35;59.23;100818.66;5067267;27;70713;-40
2022/01/22 12:44:04;;;;;;;16.85;6.25;;;;;;;30.31;59.55;100822.03;5068046;27;66236;-40
2022/01/22 12:46:52;;;;;;;16.88;5.22;;;;;;;30.28;59.70;100825.97;5070747;27;69554;-41
2022/01/22 12:49:24;;;;;;;11.10;5.13;;;;;;;30.06;59.43;100799.25;5071881;27;65435;-40
2022/01/22 12:52:05;;;;;;;13.50;5.78;;;;;;;30.22;59.81;100833.09;5071350;27;71040;-41
2022/01/22 12:54:44;;;;;;;9.57;5.63;;;;;;;29.98;60.31;100798.69;5068951;27;65928;-41
2022/01/22 12:57:24;;;;;;;14.35;5.68;;;;;;;30.12;60.02;100829.19;5067275;27;69143;-41
2022/01/22 13:00:13;;;;;;;15.02;5.70;;;;;;;30.08;60.74;100831.47;5069736;27;66841;-40
2022/01/22 13:02:47;;;;;;;10.98;5.03;;;;;;;30.10;60.18;100837.50;5071257;27;70248;-42
2022/01/22 13:05:19;;;;;;;15.68;5.88;;;;;;;29.88;60.17;100811.84;5070352;27;65656;-42
2022/01/22 13:08:29;;;;;;;10.80;5.18;;;;;;;30.02;61.08;100843.16;5002123;28;69298;-41
2022/01/22 13:11:25;;;;;;;11.90;5.28;;;;;;;30.02;61.90;100840.47;5067677;27;66722;-41
2022/01/22 13:13:56;;;;;;;10.73;5.40;;;;;;;30.04;61.36;100843.78;5052715;27;71452;-41
2022/01/22 13:16:27;;;;;;;14.05;5.85;;;;;;;30.04;61.56;100838.38;5050882;27;65837;-40
2022/01/22 13:19:00;;;;;;;9.35;5.65;;;;;;;30.01;60.81;100831.53;5069073;27;70089;-40
2022/01/22 13:21:32;;;;;;;12.15;5.43;;;;;;;30.22;62.12;100857.44;5065343;27;66507;-41
2022/01/22 13:24:04;;;;;;;9.73;4.88;;;;;;;30.23;62.03;100853.72;5065516;27;70393;-39
2022/01/22 13:26:44;;;;;;;12.15;5.28;;;;;;;30.22;62.90;100857.44;5060619;27;66530;-39
2022/01/22 13:29:33;;;;;;;8.30;5.03;;;;;;;30.24;62.34;100860.78;5070928;27;71636;-42
2022/01/22 13:32:47;;;;;;;14.00;5.57;;;;;;;30.26;62.82;100863.28;5065006;27;66433;-41
2022/01/22 13:47:57;;;;;;;15.57;5.38;;;;;;;30.28;62.39;100877.41;5024263;28;69822;-43
2022/01/22 13:50:49;;;;;;;12.18;5.22;;;;;;;30.33;62.30;100890.28;4989580;28;65298;-42
2022/01/22 13:53:36;;;;;;;13.70;5.78;;;;;;;30.35;62.97;100893.63;5021421;27;69423;-41
2022/01/22 13:56:16;;;;;;;22.25;5.63;;;;;;;30.22;62.34;100879.09;5056808;27;64594;-42
2022/01/22 13:59:26;;;;;;;16.83;5.32;;;;;;;30.35;63.27;100909.84;5068446;27;70731;-42
2022/01/22 14:03:19;;;;;;;10.48;4.95;;;;;;;30.32;63.27;100907.59;5062296;27;66299;-41
2022/01/22 14:06:04;;;;;;;12.15;4.95;;;;;;;30.27;63.73;100898.22;5057859;27;69407;-39